createdAt,value
2018-06-03T00:01:01.544Z,65.64
2018-06-03T00:03:29.046Z,65.64
2018-06-03T00:05:56.484Z,65.54
2018-06-03T00:08:24.015Z,65.51
2018-06-03T00:10:51.510Z,65.55
2018-06-03T00:13:18.947Z,65.98
2018-06-03T00:15:48.252Z,66.30
2018-06-03T00:18:15.758Z,66.54
2018-06-03T00:20:52.956Z,66.83
2018-06-03T00:23:20.411Z,67.11
2018-06-03T00:25:47.803Z,67.32
2018-06-03T00:28:15.281Z,67.28
2018-06-03T00:30:43.013Z,67.62
2018-06-03T00:33:10.465Z,67.82
2018-06-03T00:35:49.719Z,67.83
2018-06-03T00:38:29.466Z,68.10
2018-06-03T00:40:56.896Z,67.85
2018-06-03T00:43:24.515Z,68.13
2018-06-03T00:45:51.999Z,68.13
2018-06-03T00:48:19.432Z,67.89
2018-06-03T00:50:46.898Z,67.82
2018-06-03T00:53:14.351Z,67.71
2018-06-03T00:55:42.803Z,67.36
2018-06-03T00:58:10.296Z,67.39
2018-06-03T01:00:37.772Z,67.31
2018-06-03T01:03:05.171Z,67.64
2018-06-03T01:05:32.625Z,68.00
2018-06-03T01:08:00.059Z,68.15
2018-06-03T01:10:27.536Z,68.36
2018-06-03T01:12:54.968Z,68.56
2018-06-03T01:15:23.617Z,68.40
2018-06-03T01:17:51.182Z,68.46
2018-06-03T01:20:18.614Z,68.37
2018-06-03T01:22:46.026Z,68.25
2018-06-03T01:25:13.469Z,67.94
2018-06-03T01:27:41.583Z,67.82
2018-06-03T01:30:09.347Z,67.66
2018-06-03T01:32:37.506Z,67.65
2018-06-03T01:35:05.212Z,67.79
2018-06-03T01:37:32.624Z,68.06
2018-06-03T01:40:00.052Z,68.08
2018-06-03T01:42:27.486Z,68.03
2018-06-03T01:44:54.892Z,67.89
2018-06-03T01:47:22.381Z,67.80
2018-06-03T01:49:49.827Z,67.77
2018-06-03T01:52:17.260Z,67.69
2018-06-03T01:54:44.688Z,67.71
2018-06-03T01:57:12.199Z,67.58
2018-06-03T01:59:39.804Z,67.57
2018-06-03T02:02:07.220Z,67.53
2018-06-03T02:04:35.244Z,67.52
2018-06-03T02:07:02.733Z,67.79
2018-06-03T02:09:30.150Z,67.87
2018-06-03T02:11:57.590Z,67.90
2018-06-03T02:14:25.091Z,68.25
2018-06-03T02:16:53.366Z,68.53
2018-06-03T02:19:20.829Z,68.79
2018-06-03T02:21:48.255Z,69.06
2018-06-03T02:24:15.678Z,69.08
2018-06-03T02:26:43.082Z,69.10
2018-06-03T02:31:49.225Z,68.08
2018-06-03T02:34:17.502Z,67.70
2018-06-03T02:36:45.019Z,68.21
2018-06-03T02:39:13.669Z,68.54
2018-06-03T02:41:41.137Z,68.84
2018-06-03T02:46:41.203Z,68.55
2018-06-03T02:49:08.764Z,68.56
2018-06-03T02:51:36.247Z,68.38
2018-06-03T02:54:03.724Z,68.30
2018-06-03T02:56:31.196Z,68.40
2018-06-03T02:58:58.680Z,68.33
2018-06-03T03:01:26.137Z,68.14
2018-06-03T03:03:53.568Z,68.12
2018-06-03T03:06:21.045Z,67.77
2018-06-03T03:08:48.441Z,68.04
2018-06-03T03:11:15.893Z,67.97
2018-06-03T03:13:44.327Z,68.32
2018-06-03T03:16:11.765Z,68.63
2018-06-03T03:18:39.401Z,68.68
2018-06-03T03:21:08.026Z,68.78
2018-06-03T03:23:35.507Z,68.92
2018-06-03T03:26:02.969Z,69.09
2018-06-03T03:28:30.532Z,69.12
2018-06-03T03:30:58.024Z,69.27
2018-06-03T03:33:26.632Z,69.17
2018-06-03T03:35:54.102Z,69.19
2018-06-03T03:38:21.532Z,69.19
2018-06-03T03:40:48.964Z,68.88
2018-06-03T03:43:16.386Z,68.84
2018-06-03T03:45:43.859Z,68.97
2018-06-03T03:48:11.494Z,68.94
2018-06-03T03:50:38.902Z,68.95
2018-06-03T03:53:07.343Z,68.76
2018-06-03T03:55:34.786Z,68.56
2018-06-03T03:58:02.231Z,68.25
2018-06-03T04:00:30.227Z,68.31
2018-06-03T04:02:57.714Z,68.19
2018-06-03T04:05:28.909Z,68.21
2018-06-03T04:07:56.418Z,68.08
2018-06-03T04:10:26.317Z,68.04
2018-06-03T04:12:53.978Z,68.27
2018-06-03T04:15:21.362Z,68.49
2018-06-03T04:17:48.873Z,68.46
2018-06-03T04:20:16.383Z,68.59
2018-06-03T04:22:43.935Z,68.77
2018-06-03T04:25:13.144Z,68.47
2018-06-03T04:27:40.587Z,68.56
2018-06-03T04:30:08.028Z,68.27
2018-06-03T04:32:39.108Z,68.19
2018-06-03T04:35:06.577Z,68.19
2018-06-03T04:37:34.015Z,67.97
2018-06-03T04:40:01.501Z,67.87
2018-06-03T04:42:29.769Z,67.42
2018-06-03T04:44:58.093Z,67.01
2018-06-03T04:47:25.583Z,66.66
2018-06-03T04:49:52.988Z,66.12
2018-06-03T04:52:20.509Z,65.91
2018-06-03T04:54:48.058Z,66.46
2018-06-03T04:57:15.508Z,66.70
2018-06-03T04:59:42.994Z,65.99
2018-06-03T05:02:10.451Z,65.70
2018-06-03T05:04:37.930Z,65.10
2018-06-03T05:09:39.241Z,64.77
2018-06-03T05:12:06.758Z,65.19
2018-06-03T05:14:34.199Z,65.26
2018-06-03T05:17:01.623Z,65.25
2018-06-03T05:19:29.097Z,64.60
2018-06-03T05:21:56.540Z,63.48
2018-06-03T05:24:24.160Z,63.06
2018-06-03T05:26:51.670Z,63.34
2018-06-03T05:29:19.097Z,62.83
2018-06-03T05:31:47.363Z,61.70
2018-06-03T05:34:15.462Z,61.50
2018-06-03T05:36:43.668Z,61.12
2018-06-03T05:39:11.130Z,60.77
2018-06-03T05:41:38.596Z,60.47
2018-06-03T05:44:06.105Z,60.39
2018-06-03T05:46:36.369Z,59.85
2018-06-03T05:49:04.302Z,60.38
2018-06-03T05:51:31.855Z,60.08
2018-06-03T05:54:00.419Z,59.92
2018-06-03T05:56:27.869Z,59.89
2018-06-03T05:58:55.320Z,59.64
2018-06-03T06:01:22.816Z,59.37
2018-06-03T06:03:50.212Z,59.67
2018-06-03T06:06:17.657Z,59.19
2018-06-03T06:08:45.124Z,58.88
2018-06-03T06:11:12.615Z,58.92
2018-06-03T06:13:40.125Z,58.27
2018-06-03T06:16:08.544Z,58.18
2018-06-03T06:18:35.992Z,58.55
2018-06-03T06:21:03.381Z,57.49
2018-06-03T06:23:31.696Z,57.00
2018-06-03T06:25:59.100Z,56.94
2018-06-03T06:28:26.584Z,57.28
2018-06-03T06:30:54.082Z,57.02
2018-06-03T06:33:23.207Z,55.97
2018-06-03T06:35:50.702Z,55.53
2018-06-03T06:38:18.167Z,55.63
2018-06-03T06:40:46.290Z,55.08
2018-06-03T06:43:13.852Z,54.03
2018-06-03T06:45:41.312Z,53.97
2018-06-03T06:48:09.348Z,53.93
2018-06-03T06:50:36.923Z,53.25
2018-06-03T06:53:04.372Z,52.72
2018-06-03T06:55:31.863Z,52.99
2018-06-03T06:58:00.180Z,52.68
2018-06-03T07:00:27.690Z,52.20
2018-06-03T07:02:55.202Z,52.16
2018-06-03T07:05:22.683Z,51.93
2018-06-03T07:07:50.147Z,52.11
2018-06-03T07:10:17.560Z,52.53
2018-06-03T07:12:45.008Z,52.62
2018-06-03T07:15:12.527Z,52.61
2018-06-03T07:17:40.121Z,52.30
2018-06-03T07:20:07.770Z,52.29
2018-06-03T07:22:35.512Z,51.87
2018-06-03T07:25:03.793Z,51.03
2018-06-03T07:27:31.238Z,50.30
2018-06-03T07:29:58.748Z,49.78
2018-06-03T07:32:26.183Z,49.29
2018-06-03T07:34:53.675Z,49.10
2018-06-03T07:37:21.208Z,49.41
2018-06-03T07:39:48.677Z,48.34
2018-06-03T07:42:16.133Z,47.56
2018-06-03T07:44:43.740Z,47.32
2018-06-03T07:47:10.724Z,46.15
2018-06-03T07:49:37.791Z,45.15
2018-06-03T07:52:05.344Z,44.52
2018-06-03T07:54:33.103Z,44.49
2018-06-03T07:57:00.557Z,44.39
2018-06-03T07:59:27.590Z,43.86
2018-06-03T08:01:55.038Z,41.96
2018-06-03T08:04:22.629Z,41.41
2018-06-03T08:06:50.071Z,41.33
2018-06-03T08:09:17.580Z,41.36
2018-06-03T08:11:45.080Z,40.41
2018-06-03T08:14:12.538Z,39.29
2018-06-03T08:16:40.334Z,39.82
2018-06-03T08:19:08.726Z,40.07
2018-06-03T08:21:36.165Z,39.10
2018-06-03T08:24:03.592Z,38.61
2018-06-03T08:26:31.103Z,39.39
2018-06-03T08:28:58.554Z,39.12
2018-06-03T08:31:26.017Z,38.57
2018-06-03T08:33:53.539Z,39.14
2018-06-03T08:36:20.980Z,40.09
2018-06-03T08:38:48.477Z,40.37
2018-06-03T08:41:16.395Z,41.31
2018-06-03T08:43:43.841Z,41.89
2018-06-03T08:46:11.329Z,42.64
2018-06-03T08:48:38.767Z,41.98
2018-06-03T08:51:06.237Z,41.21
2018-06-03T08:53:33.666Z,41.73
2018-06-03T08:56:01.155Z,42.14
2018-06-03T08:58:28.585Z,40.55
2018-06-03T09:00:56.056Z,39.82
2018-06-03T09:03:24.228Z,39.60
2018-06-03T09:05:52.569Z,38.61
2018-06-03T09:08:20.718Z,39.67
2018-06-03T09:10:48.199Z,40.84
2018-06-03T09:13:16.350Z,41.23
2018-06-03T09:15:43.827Z,40.90
2018-06-03T09:18:11.327Z,40.44
2018-06-03T09:20:38.773Z,39.50
2018-06-03T09:23:06.412Z,39.50
2018-06-03T09:25:33.857Z,39.24
2018-06-03T09:28:02.267Z,38.70
2018-06-03T09:30:30.084Z,38.94
2018-06-03T09:32:57.945Z,38.16
2018-06-03T09:35:25.397Z,38.81
2018-06-03T09:37:53.012Z,38.85
2018-06-03T09:40:20.780Z,38.33
2018-06-03T09:42:49.220Z,38.78
2018-06-03T09:45:16.683Z,39.03
2018-06-03T09:47:44.225Z,39.47
2018-06-03T09:50:11.630Z,40.44
2018-06-03T09:52:38.916Z,40.86
2018-06-03T09:55:06.613Z,40.46
2018-06-03T09:57:34.077Z,39.95
2018-06-03T10:00:01.077Z,40.61
2018-06-03T10:02:29.162Z,40.91
2018-06-03T10:04:56.599Z,40.39
2018-06-03T10:07:23.601Z,40.13
2018-06-03T10:09:50.671Z,39.17
2018-06-03T10:12:17.690Z,38.85
2018-06-03T10:14:44.723Z,38.41
2018-06-03T10:17:11.894Z,38.21
2018-06-03T10:19:38.947Z,38.27
2018-06-03T10:22:07.020Z,37.97
2018-06-03T10:24:33.967Z,38.03
2018-06-03T10:27:03.562Z,37.22
2018-06-03T10:29:31.032Z,37.96
2018-06-03T10:31:58.499Z,36.76
2018-06-03T10:34:25.903Z,37.84
2018-06-03T10:36:53.824Z,37.56
2018-06-03T10:39:21.283Z,37.74
2018-06-03T10:41:49.643Z,38.45
2018-06-03T10:44:17.141Z,38.35
2018-06-03T10:46:44.601Z,37.39
2018-06-03T10:49:12.126Z,37.07
2018-06-03T10:51:39.612Z,36.83
2018-06-03T10:54:08.150Z,37.11
2018-06-03T10:56:35.647Z,36.91
2018-06-03T10:59:03.129Z,36.30
2018-06-03T11:01:30.572Z,36.23
2018-06-03T11:03:58.078Z,36.41
2018-06-03T11:06:25.508Z,36.12
2018-06-03T11:08:53.928Z,35.83
2018-06-03T11:11:20.931Z,36.23
2018-06-03T11:13:48.457Z,36.67
2018-06-03T11:16:15.506Z,36.97
2018-06-03T11:18:43.026Z,37.89
2018-06-03T11:21:11.147Z,38.34
2018-06-03T11:23:39.205Z,37.81
2018-06-03T11:26:06.627Z,37.87
2018-06-03T11:28:34.087Z,38.04
2018-06-03T11:31:01.571Z,37.78
2018-06-03T11:33:28.990Z,37.20
2018-06-03T11:35:56.443Z,37.08
2018-06-03T11:38:24.924Z,35.77
2018-06-03T11:40:53.285Z,36.05
2018-06-03T11:43:20.741Z,36.03
2018-06-03T11:45:48.410Z,36.69
2018-06-03T11:48:16.588Z,37.12
2018-06-03T11:50:44.133Z,36.39
2018-06-03T11:53:11.585Z,36.95
2018-06-03T11:55:38.997Z,37.42
2018-06-03T11:58:18.454Z,37.90
2018-06-03T12:00:45.964Z,38.28
2018-06-03T12:03:13.602Z,36.57
2018-06-03T12:05:41.068Z,35.41
2018-06-03T12:08:08.610Z,35.40
2018-06-03T12:10:36.027Z,35.61
2018-06-03T12:13:03.948Z,34.12
2018-06-03T12:15:31.473Z,34.46
2018-06-03T12:17:58.877Z,34.39
2018-06-03T12:20:26.364Z,33.36
2018-06-03T12:22:53.798Z,33.18
2018-06-03T12:25:21.370Z,34.34
2018-06-03T12:27:48.796Z,34.78
2018-06-03T12:30:16.238Z,35.54
2018-06-03T12:32:43.690Z,36.85
2018-06-03T12:35:11.392Z,37.11
2018-06-03T12:37:38.827Z,37.15
2018-06-03T12:40:06.313Z,36.83
2018-06-03T12:42:34.102Z,35.57
2018-06-03T12:45:03.590Z,35.06
2018-06-03T12:47:31.311Z,32.09
2018-06-03T12:49:58.781Z,31.92
2018-06-03T12:52:26.330Z,32.26
2018-06-03T12:54:53.803Z,32.77
2018-06-03T12:57:21.199Z,32.16
2018-06-03T12:59:48.874Z,32.15
2018-06-03T13:02:16.339Z,31.80
2018-06-03T13:04:43.787Z,33.22
2018-06-03T13:07:11.246Z,32.83
2018-06-03T13:09:38.794Z,33.16
2018-06-03T13:12:06.437Z,34.81
2018-06-03T13:14:34.337Z,35.04
2018-06-03T13:17:01.770Z,35.45
2018-06-03T13:19:29.436Z,36.19
2018-06-03T13:21:56.913Z,35.89
2018-06-03T13:24:25.345Z,35.63
2018-06-03T13:26:52.774Z,35.32
2018-06-03T13:29:20.217Z,35.03
2018-06-03T13:31:48.457Z,34.91
2018-06-03T13:34:15.927Z,34.93
2018-06-03T13:36:43.333Z,34.58
2018-06-03T13:39:10.965Z,34.30
2018-06-03T13:41:38.406Z,35.36
2018-06-03T13:44:06.760Z,36.69
2018-06-03T13:46:34.196Z,37.13
2018-06-03T13:49:02.279Z,37.40
2018-06-03T13:51:29.820Z,37.77
2018-06-03T13:53:57.222Z,37.68
2018-06-03T13:56:24.699Z,37.63
2018-06-03T13:58:52.145Z,37.14
2018-06-03T14:01:19.868Z,37.19
2018-06-03T14:03:47.357Z,36.95
2018-06-03T14:06:14.879Z,36.44
2018-06-03T14:08:42.326Z,36.22
2018-06-03T14:11:09.808Z,36.11
2018-06-03T14:13:37.870Z,36.23
2018-06-03T14:16:05.537Z,36.24
2018-06-03T14:18:33.114Z,36.39
2018-06-03T14:21:02.325Z,36.01
2018-06-03T14:23:29.982Z,36.24
2018-06-03T14:25:57.475Z,37.45
2018-06-03T14:28:25.079Z,37.38
2018-06-03T14:30:52.612Z,36.49
2018-06-03T14:33:20.253Z,35.94
2018-06-03T14:35:48.815Z,36.68
2018-06-03T14:38:16.400Z,36.26
2018-06-03T14:40:44.479Z,36.43
2018-06-03T14:43:12.193Z,36.75
2018-06-03T14:45:39.684Z,37.12
2018-06-03T14:48:08.148Z,38.11
2018-06-03T14:50:35.666Z,38.62
2018-06-03T14:53:04.193Z,39.42
2018-06-03T14:55:31.635Z,40.44
2018-06-03T14:57:59.132Z,40.62
2018-06-03T15:00:26.579Z,40.61
2018-06-03T15:02:54.094Z,40.69
2018-06-03T15:05:21.624Z,40.78
2018-06-03T15:07:49.219Z,40.80
2018-06-03T15:10:16.634Z,40.63
2018-06-03T15:12:44.147Z,39.93
2018-06-03T15:15:11.583Z,40.23
2018-06-03T15:17:39.048Z,39.46
2018-06-03T15:20:06.553Z,38.86
2018-06-03T15:22:34.010Z,38.59
2018-06-03T15:25:01.431Z,38.60
2018-06-03T15:27:28.918Z,39.09
2018-06-03T15:29:56.388Z,39.86
2018-06-03T15:32:23.815Z,40.35
2018-06-03T15:34:51.352Z,40.20
2018-06-03T15:37:18.860Z,40.04
2018-06-03T15:39:46.306Z,39.86
2018-06-03T15:42:13.721Z,38.65
2018-06-03T15:44:41.321Z,38.75
2018-06-03T15:47:09.626Z,37.75
2018-06-03T15:49:45.784Z,38.61
2018-06-03T15:52:13.666Z,39.09
2018-06-03T15:54:42.454Z,39.36
2018-06-03T15:57:09.891Z,39.72
2018-06-03T15:59:37.329Z,39.46
2018-06-03T16:02:04.827Z,39.87
2018-06-03T16:04:32.341Z,39.78
2018-06-03T16:07:00.031Z,39.67
2018-06-03T16:09:27.556Z,40.44
2018-06-03T16:11:55.042Z,39.63
2018-06-03T16:14:22.523Z,39.87
2018-06-03T16:16:50.047Z,39.72
2018-06-03T16:19:17.598Z,39.37
2018-06-03T16:21:45.099Z,39.66
2018-06-03T16:24:12.591Z,39.58
2018-06-03T16:26:40.002Z,39.59
2018-06-03T16:29:08.387Z,39.79
2018-06-03T16:31:35.908Z,39.69
2018-06-03T16:34:03.476Z,39.53
2018-06-03T16:36:30.913Z,39.89
2018-06-03T16:38:58.379Z,40.04
2018-06-03T16:41:25.868Z,40.37
2018-06-03T16:43:53.457Z,40.67
2018-06-03T16:46:20.895Z,40.79
2018-06-03T16:48:48.463Z,40.95
2018-06-03T16:51:15.937Z,41.09
2018-06-03T16:53:43.500Z,41.65
2018-06-03T16:56:10.963Z,42.42
2018-06-03T16:58:38.524Z,43.83
2018-06-03T17:01:05.980Z,44.25
2018-06-03T17:03:34.619Z,45.45
2018-06-03T17:06:02.065Z,47.05
2018-06-03T17:08:29.554Z,46.97
2018-06-03T17:10:57.059Z,48.02
2018-06-03T17:13:24.475Z,49.64
2018-06-03T17:15:52.006Z,49.54
2018-06-03T17:18:19.495Z,50.04
2018-06-03T17:20:46.950Z,51.23
2018-06-03T17:23:14.355Z,52.15
2018-06-03T17:25:44.700Z,51.09
2018-06-03T17:28:12.107Z,51.81
2018-06-03T17:30:39.772Z,51.89
2018-06-03T17:33:07.184Z,52.38
2018-06-03T17:35:34.626Z,52.91
2018-06-03T17:38:02.196Z,52.65
2018-06-03T17:40:29.740Z,52.76
2018-06-03T17:42:57.199Z,53.15
2018-06-03T17:45:24.680Z,54.14
2018-06-03T17:47:52.283Z,53.85
2018-06-03T17:50:19.812Z,53.62
2018-06-03T17:52:47.299Z,53.79
2018-06-03T17:55:14.790Z,53.91
2018-06-03T17:57:42.370Z,54.54
2018-06-03T18:00:09.975Z,55.58
2018-06-03T18:02:38.069Z,56.55
2018-06-03T18:05:05.540Z,57.18
2018-06-03T18:07:33.163Z,60.13
2018-06-03T18:10:00.684Z,62.07
2018-06-03T18:12:28.180Z,63.12
2018-06-03T18:14:55.590Z,63.69
2018-06-03T18:17:23.658Z,63.79
2018-06-03T18:19:51.058Z,64.79
2018-06-03T18:22:20.324Z,65.53
2018-06-03T18:24:47.925Z,66.59
2018-06-03T18:27:15.366Z,67.44
2018-06-03T18:29:42.746Z,67.40
2018-06-03T18:32:10.297Z,67.43
2018-06-03T18:34:37.819Z,67.46
2018-06-03T18:37:05.259Z,68.13
2018-06-03T18:39:32.791Z,68.33
2018-06-03T18:42:00.261Z,67.88
2018-06-03T18:44:27.807Z,67.40
2018-06-03T18:46:55.296Z,66.64
2018-06-03T18:49:22.789Z,66.12
2018-06-03T18:51:51.242Z,65.38
2018-06-03T18:54:18.794Z,64.77
2018-06-03T18:56:46.260Z,64.31
2018-06-03T18:59:14.223Z,64.17
2018-06-03T19:01:42.579Z,64.03
2018-06-03T19:04:10.023Z,63.20
2018-06-03T19:06:37.491Z,63.14
2018-06-03T19:09:04.891Z,63.21
2018-06-03T19:11:33.182Z,63.29
2018-06-03T19:14:02.110Z,62.90
2018-06-03T19:16:29.630Z,62.78
2018-06-03T19:18:57.208Z,63.60
2018-06-03T19:21:24.767Z,63.96
2018-06-03T19:23:52.187Z,65.72
2018-06-03T19:26:19.638Z,69.38
2018-06-03T19:28:47.053Z,72.32
2018-06-03T19:31:14.518Z,72.85
2018-06-03T19:33:42.016Z,73.90
2018-06-03T19:36:09.609Z,74.54
2018-06-03T19:38:37.031Z,73.79
2018-06-03T19:41:04.471Z,73.51
2018-06-03T19:43:31.962Z,74.25
2018-06-03T19:45:59.419Z,73.87
2018-06-03T19:48:27.071Z,72.88
2018-06-03T19:50:55.384Z,73.12
2018-06-03T19:53:23.479Z,71.73
2018-06-03T19:55:50.933Z,71.66
2018-06-03T19:58:18.575Z,71.64
2018-06-03T20:00:47.074Z,73.24
2018-06-03T20:03:14.585Z,74.24
2018-06-03T20:05:42.028Z,75.73
2018-06-03T20:08:09.613Z,75.91
2018-06-03T20:10:37.341Z,75.66
2018-06-03T20:13:04.883Z,75.55
2018-06-03T20:15:32.379Z,75.66
2018-06-03T20:18:01.206Z,75.45
2018-06-03T20:20:28.699Z,74.73
2018-06-03T20:22:56.326Z,75.03
2018-06-03T20:25:23.819Z,74.64
2018-06-03T20:27:51.394Z,76.19
2018-06-03T20:30:18.846Z,76.62
2018-06-03T20:32:46.337Z,76.05
2018-06-03T20:35:15.945Z,75.02
2018-06-03T20:37:43.427Z,73.86
2018-06-03T20:40:11.550Z,71.97
2018-06-03T20:42:39.083Z,72.10
2018-06-03T20:45:06.482Z,70.94
2018-06-03T20:47:33.964Z,71.52
2018-06-03T20:50:01.452Z,71.45
2018-06-03T20:52:28.957Z,71.38
2018-06-03T20:54:56.391Z,71.85
2018-06-03T20:57:23.880Z,72.18
2018-06-03T20:59:51.529Z,71.56
2018-06-03T21:02:19.103Z,71.42
2018-06-03T21:04:48.064Z,72.22
2018-06-03T21:07:15.581Z,72.63
2018-06-03T21:09:43.027Z,72.33
2018-06-03T21:12:10.460Z,71.64
2018-06-03T21:14:38.018Z,72.19
2018-06-03T21:17:05.402Z,72.71
2018-06-03T21:19:35.683Z,72.64
2018-06-03T21:22:03.090Z,72.31
2018-06-03T21:24:30.585Z,71.49
2018-06-03T21:26:58.020Z,71.10
2018-06-03T21:29:25.460Z,71.44
2018-06-03T21:31:52.868Z,72.13
2018-06-03T21:34:22.328Z,73.50
2018-06-03T21:36:49.880Z,73.63
2018-06-03T21:39:17.996Z,72.90
2018-06-03T21:41:46.609Z,73.61
2018-06-03T21:44:14.063Z,74.29
2018-06-03T21:46:41.459Z,74.41
2018-06-03T21:49:09.000Z,74.82
2018-06-03T21:51:36.465Z,74.02
2018-06-03T21:54:03.863Z,74.92
2018-06-03T21:56:32.278Z,74.21
2018-06-03T21:58:59.710Z,74.00
2018-06-03T22:01:27.450Z,74.34
2018-06-03T22:03:54.922Z,75.44
2018-06-03T22:06:23.541Z,74.94
2018-06-03T22:08:51.110Z,75.60
2018-06-03T22:11:18.608Z,75.52
2018-06-03T22:13:46.439Z,75.76
2018-06-03T22:16:14.152Z,76.06
2018-06-03T22:18:41.690Z,75.30
2018-06-03T22:21:09.955Z,75.22
2018-06-03T22:23:37.405Z,75.70
2018-06-03T22:26:05.703Z,74.93
2018-06-03T22:28:33.153Z,74.73
2018-06-03T22:31:00.565Z,75.22
2018-06-03T22:33:28.000Z,74.54
2018-06-03T22:35:55.559Z,74.06
2018-06-03T22:38:23.032Z,74.39
2018-06-03T22:40:50.433Z,74.12
2018-06-03T22:43:17.843Z,74.47
2018-06-03T22:45:45.290Z,74.33
2018-06-03T22:48:12.768Z,74.56
2018-06-03T22:53:12.182Z,74.51
2018-06-03T22:55:40.544Z,74.01
2018-06-03T22:58:08.042Z,74.15
2018-06-03T23:00:35.539Z,73.72
2018-06-03T23:03:03.041Z,73.32
2018-06-03T23:05:30.437Z,72.87
2018-06-03T23:07:57.898Z,72.00
2018-06-03T23:10:25.511Z,71.90
2018-06-03T23:12:53.003Z,72.42
2018-06-03T23:15:20.488Z,72.36
2018-06-03T23:17:47.975Z,72.18
2018-06-03T23:20:15.436Z,72.00
2018-06-03T23:22:42.842Z,72.15
2018-06-03T23:25:10.369Z,72.81
2018-06-03T23:27:38.801Z,72.83
2018-06-03T23:30:06.261Z,72.97
2018-06-03T23:32:33.748Z,72.89
2018-06-03T23:35:01.210Z,72.83
2018-06-03T23:37:29.513Z,72.21
2018-06-03T23:39:56.970Z,72.17
2018-06-03T23:42:24.426Z,72.92
2018-06-03T23:44:53.064Z,73.69
2018-06-03T23:47:20.513Z,73.64
2018-06-03T23:49:47.972Z,73.99
2018-06-03T23:52:15.384Z,74.05
2018-06-03T23:54:42.859Z,73.85
2018-06-03T23:57:10.268Z,74.06
2018-06-03T23:59:37.671Z,74.16
